createdAt,value
2023-01-04T00:01:36.940Z,13.45
2023-01-04T00:04:04.918Z,17.40
2023-01-04T00:06:32.887Z,12.70
2023-01-04T00:09:00.517Z,16.65
2023-01-04T00:11:28.413Z,19.95
2023-01-04T00:13:58.848Z,12.35
2023-01-04T00:16:28.707Z,18.83
2023-01-04T00:18:57.208Z,19.70
2023-01-04T00:21:30.372Z,14.48
2023-01-04T00:26:29.605Z,17.45
2023-01-04T00:29:01.196Z,16.52
2023-01-04T00:31:29.339Z,21.80
2023-01-04T00:33:59.060Z,14.55
2023-01-04T00:36:27.053Z,12.10
2023-01-04T00:39:10.810Z,14.50
2023-01-04T00:41:58.666Z,16.60
2023-01-04T00:44:27.532Z,11.15
2023-01-04T00:46:55.242Z,12.00
2023-01-04T00:49:22.936Z,14.00
2023-01-04T00:51:50.597Z,12.63
2023-01-04T00:54:18.845Z,13.90
2023-01-04T00:56:47.402Z,16.58
2023-01-04T00:59:17.043Z,12.05
2023-01-04T01:01:51.880Z,12.43
2023-01-04T01:04:22.655Z,13.55
2023-01-04T01:09:18.806Z,19.50
2023-01-04T01:11:46.684Z,15.00
2023-01-04T01:14:18.632Z,17.55
2023-01-04T01:16:56.541Z,16.55
2023-01-04T01:19:27.139Z,18.90
2023-01-04T01:21:57.181Z,19.35
2023-01-04T01:24:25.909Z,19.38
2023-01-04T01:26:53.602Z,18.60
2023-01-04T01:29:21.414Z,23.98
2023-01-04T01:31:49.203Z,16.40
2023-01-04T01:34:16.913Z,20.02
2023-01-04T01:36:44.756Z,18.58
2023-01-04T01:39:12.506Z,17.25
2023-01-04T01:41:40.343Z,16.95
2023-01-04T01:44:43.260Z,18.65
2023-01-04T01:47:23.688Z,16.10
2023-01-04T01:49:54.621Z,16.95
2023-01-04T01:52:38.148Z,16.58
2023-01-04T01:55:10.671Z,21.52
2023-01-04T01:57:39.756Z,17.35
2023-01-04T02:00:12.593Z,18.80
2023-01-04T02:02:54.000Z,23.02
2023-01-04T02:05:21.998Z,27.17
2023-01-04T02:07:53.706Z,21.70
2023-01-04T02:10:22.663Z,27.70
2023-01-04T02:12:52.616Z,19.55
2023-01-04T02:15:23.919Z,24.27
2023-01-04T02:18:08.930Z,21.33
2023-01-04T02:20:44.654Z,25.20
2023-01-04T02:23:32.791Z,22.23
2023-01-04T02:26:38.286Z,26.85
2023-01-04T02:29:36.751Z,16.80
2023-01-04T02:32:12.774Z,22.13
2023-01-04T02:34:56.469Z,27.08
2023-01-04T02:37:35.553Z,21.40
2023-01-04T02:40:33.068Z,22.40
2023-01-04T02:43:30.891Z,26.85
2023-01-04T02:46:06.176Z,19.25
2023-01-04T02:48:57.717Z,21.48
2023-01-04T02:51:35.967Z,23.05
2023-01-04T02:54:18.971Z,19.38
2023-01-04T02:57:05.704Z,20.02
2023-01-04T02:59:58.035Z,18.80
2023-01-04T03:02:53.231Z,18.33
2023-01-04T03:06:16.538Z,23.23
2023-01-04T03:08:49.683Z,22.48
2023-01-04T03:11:36.624Z,20.45
2023-01-04T03:14:31.333Z,20.15
2023-01-04T03:17:06.560Z,24.00
2023-01-04T03:19:52.184Z,26.85
2023-01-04T03:23:09.626Z,23.25
2023-01-04T03:26:03.306Z,25.33
2023-01-04T03:28:52.900Z,26.42
2023-01-04T03:31:48.803Z,15.98
2023-01-04T03:34:35.439Z,15.85
2023-01-04T03:37:09.239Z,13.98
2023-01-04T03:40:20.684Z,11.23
2023-01-04T03:43:27.203Z,25.65
2023-01-04T03:46:31.106Z,11.93
2023-01-04T03:49:14.666Z,14.65
2023-01-04T03:51:45.267Z,15.70
2023-01-04T03:56:49.391Z,12.80
2023-01-04T03:59:17.429Z,15.93
2023-01-04T04:01:45.597Z,9.63
2023-01-04T04:04:31.617Z,13.13
2023-01-04T04:07:17.651Z,7.53
2023-01-04T04:09:45.251Z,6.30
2023-01-04T04:12:12.873Z,14.68
2023-01-04T04:14:40.479Z,5.63
2023-01-04T04:17:08.118Z,4.45
2023-01-04T04:19:35.736Z,10.02
2023-01-04T04:22:03.443Z,9.82
2023-01-04T04:24:31.358Z,8.13
2023-01-04T04:26:59.048Z,13.35
2023-01-04T04:29:26.693Z,6.18
2023-01-04T04:31:54.395Z,12.10
2023-01-04T04:34:22.141Z,13.70
2023-01-04T04:36:49.836Z,13.20
2023-01-04T04:39:17.782Z,10.10
2023-01-04T04:41:45.408Z,12.57
2023-01-04T04:44:20.577Z,15.35
2023-01-04T04:46:49.069Z,11.50
2023-01-04T04:49:17.613Z,10.52
2023-01-04T04:51:46.424Z,11.90
2023-01-04T04:54:19.658Z,9.07
2023-01-04T04:56:48.732Z,7.45
2023-01-04T04:59:17.009Z,8.93
2023-01-04T05:01:44.892Z,7.65
2023-01-04T05:04:16.819Z,8.10
2023-01-04T05:06:45.404Z,10.52
2023-01-04T05:09:14.081Z,11.25
2023-01-04T05:12:00.602Z,12.48
2023-01-04T05:14:28.568Z,12.20
2023-01-04T05:16:56.290Z,12.23
2023-01-04T05:19:24.159Z,11.90
2023-01-04T05:21:51.804Z,11.93
2023-01-04T05:24:19.453Z,10.35
2023-01-04T05:26:47.099Z,8.75
2023-01-04T05:29:34.638Z,14.80
2023-01-04T05:32:02.386Z,14.20
2023-01-04T05:34:30.088Z,11.13
2023-01-04T05:36:57.666Z,15.23
2023-01-04T05:39:25.313Z,15.95
2023-01-04T05:42:11.589Z,19.65
2023-01-04T05:44:39.196Z,21.30
2023-01-04T05:47:12.958Z,21.80
2023-01-04T05:49:43.038Z,17.55
2023-01-04T05:52:10.922Z,19.33
2023-01-04T05:54:38.677Z,19.83
2023-01-04T05:57:06.798Z,18.15
2023-01-04T05:59:41.140Z,17.42
2023-01-04T06:02:15.842Z,23.38
2023-01-04T06:04:43.698Z,21.13
2023-01-04T06:07:11.440Z,15.63
2023-01-04T06:09:39.243Z,22.17
2023-01-04T06:12:07.097Z,14.45
2023-01-04T06:14:34.773Z,19.38
2023-01-04T06:17:02.657Z,16.95
2023-01-04T06:19:30.440Z,14.48
2023-01-04T06:21:58.694Z,16.42
2023-01-04T06:24:26.314Z,11.13
2023-01-04T06:26:53.967Z,18.63
2023-01-04T06:29:21.679Z,10.25
2023-01-04T06:31:49.329Z,9.07
2023-01-04T06:34:17.067Z,21.33
2023-01-04T06:36:44.919Z,15.77
2023-01-04T06:39:12.595Z,14.75
2023-01-04T06:41:40.203Z,15.48
2023-01-04T06:44:07.898Z,16.75
2023-01-04T06:46:35.679Z,15.20
2023-01-04T06:49:03.646Z,13.57
2023-01-04T06:51:31.390Z,11.75
2023-01-04T06:54:03.429Z,7.07
2023-01-04T06:56:32.311Z,14.48
2023-01-04T06:59:00.226Z,10.48
2023-01-04T07:01:28.607Z,10.75
2023-01-04T07:03:56.658Z,11.23
2023-01-04T07:06:24.691Z,15.68
2023-01-04T07:08:52.964Z,11.57
2023-01-04T07:11:20.531Z,11.35
2023-01-04T07:13:48.221Z,14.15
2023-01-04T07:16:15.971Z,11.40
2023-01-04T07:18:43.719Z,8.98
2023-01-04T07:21:11.360Z,7.68
2023-01-04T07:23:39.002Z,13.52
2023-01-04T07:26:06.769Z,16.33
2023-01-04T07:28:53.329Z,11.27
2023-01-04T07:31:21.206Z,14.65
2023-01-04T07:33:57.757Z,11.55
2023-01-04T07:36:28.641Z,13.52
2023-01-04T07:38:56.235Z,17.42
2023-01-04T07:41:23.871Z,15.40
2023-01-04T07:43:51.619Z,11.82
2023-01-04T07:46:19.267Z,14.77
2023-01-04T07:48:46.947Z,9.90
2023-01-04T07:51:14.693Z,14.82
2023-01-04T07:53:42.378Z,8.55
2023-01-04T07:56:13.767Z,11.88
2023-01-04T07:58:46.096Z,13.40
2023-01-04T08:01:16.679Z,8.13
2023-01-04T08:06:16.433Z,11.63
2023-01-04T08:08:44.934Z,17.42
2023-01-04T08:11:15.570Z,8.73
2023-01-04T08:16:28.431Z,16.48
2023-01-04T08:18:57.419Z,10.45
2023-01-04T08:21:26.143Z,7.10
2023-01-04T08:23:54.258Z,9.70
2023-01-04T08:26:21.990Z,11.45
2023-01-04T08:28:50.554Z,11.52
2023-01-04T08:31:22.511Z,10.93
2023-01-04T08:33:54.240Z,13.55
2023-01-04T08:36:39.956Z,13.93
2023-01-04T08:39:07.589Z,7.97
2023-01-04T08:42:04.819Z,12.43
2023-01-04T08:44:38.511Z,10.85
2023-01-04T08:47:06.364Z,12.07
2023-01-04T08:49:34.115Z,12.45
2023-01-04T08:52:01.772Z,13.95
2023-01-04T08:54:29.384Z,17.10
2023-01-04T08:56:57.052Z,11.07
2023-01-04T08:59:24.712Z,12.25
2023-01-04T09:01:52.516Z,9.80
2023-01-04T09:04:20.190Z,12.88
2023-01-04T09:06:47.848Z,10.13
2023-01-04T09:09:16.037Z,11.32
2023-01-04T09:11:44.101Z,9.88
2023-01-04T09:14:13.949Z,13.60
2023-01-04T09:16:41.886Z,19.53
2023-01-04T09:19:09.707Z,18.33
2023-01-04T09:21:37.492Z,19.70
2023-01-04T09:24:05.398Z,13.68
2023-01-04T09:26:33.016Z,19.52
2023-01-04T09:29:00.824Z,14.07
2023-01-04T09:31:29.119Z,15.75
2023-01-04T09:34:15.275Z,16.35
2023-01-04T09:36:46.433Z,10.90
2023-01-04T09:39:24.079Z,17.27
2023-01-04T09:41:59.894Z,16.60
2023-01-04T09:47:49.664Z,12.10
2023-01-04T09:50:40.910Z,19.15
2023-01-04T09:53:24.482Z,14.07
2023-01-04T09:55:55.957Z,20.33
2023-01-04T09:58:41.327Z,17.20
2023-01-04T10:01:36.363Z,17.30
2023-01-04T10:04:31.482Z,13.25
2023-01-04T10:07:04.679Z,16.58
2023-01-04T10:09:33.830Z,16.77
2023-01-04T10:12:04.568Z,21.05
2023-01-04T10:14:47.475Z,15.70
2023-01-04T10:18:10.358Z,21.10
2023-01-04T10:23:56.943Z,20.88
2023-01-04T10:26:35.026Z,16.92
2023-01-04T10:29:17.604Z,18.13
2023-01-04T10:31:52.499Z,12.50
2023-01-04T10:34:33.675Z,20.67
2023-01-04T10:37:11.641Z,20.20
2023-01-04T10:39:40.319Z,19.05
2023-01-04T10:42:33.820Z,19.77
2023-01-04T10:45:19.249Z,15.02
2023-01-04T10:47:52.942Z,22.15
2023-01-04T10:50:31.232Z,17.73
2023-01-04T10:53:13.176Z,18.10
2023-01-04T10:56:24.150Z,20.25
2023-01-04T10:59:17.337Z,19.20
2023-01-04T11:01:55.233Z,19.35
2023-01-04T11:04:32.181Z,22.20
2023-01-04T11:07:08.689Z,19.45
2023-01-04T11:09:47.199Z,15.52
2023-01-04T11:12:18.329Z,13.73
2023-01-04T11:14:46.093Z,16.25
2023-01-04T11:17:14.111Z,16.70
2023-01-04T11:19:42.825Z,19.58
2023-01-04T11:22:10.419Z,21.13
2023-01-04T11:24:54.052Z,18.35
2023-01-04T11:27:31.869Z,15.63
2023-01-04T11:30:13.684Z,16.73
2023-01-04T11:32:57.355Z,17.60
2023-01-04T11:35:42.243Z,20.38
2023-01-04T11:38:22.249Z,15.27
2023-01-04T11:40:56.107Z,19.17
2023-01-04T11:43:25.336Z,18.08
2023-01-04T11:46:02.455Z,18.58
2023-01-04T11:48:40.681Z,20.38
2023-01-04T11:51:18.099Z,21.67
2023-01-04T11:53:46.774Z,14.57
2023-01-04T11:56:23.325Z,21.45
2023-01-04T11:59:09.322Z,18.75
2023-01-04T12:01:43.188Z,17.92
2023-01-04T12:04:24.110Z,21.17
2023-01-04T12:06:59.638Z,18.55
2023-01-04T12:09:29.914Z,22.50
2023-01-04T12:12:00.063Z,17.05
2023-01-04T12:14:32.994Z,19.30
2023-01-04T12:17:26.188Z,18.77
2023-01-04T12:19:56.205Z,14.32
2023-01-04T12:22:33.642Z,25.63
2023-01-04T12:25:08.337Z,20.40
2023-01-04T12:27:36.774Z,20.92
2023-01-04T12:30:08.231Z,19.85
2023-01-04T12:32:35.869Z,21.73
2023-01-04T12:35:03.655Z,21.00
2023-01-04T12:37:48.447Z,26.40
2023-01-04T12:40:47.202Z,16.42
2023-01-04T12:43:25.869Z,15.90
2023-01-04T12:46:49.623Z,20.08
2023-01-04T12:49:26.360Z,21.05
2023-01-04T12:55:23.662Z,23.63
2023-01-04T12:57:51.513Z,18.50
2023-01-04T13:00:19.336Z,23.73
2023-01-04T13:03:08.084Z,24.48
2023-01-04T13:05:57.592Z,22.80
2023-01-04T13:08:26.521Z,21.90
2023-01-04T13:10:57.386Z,19.83
2023-01-04T13:13:45.603Z,21.45
2023-01-04T13:16:40.227Z,17.15
2023-01-04T13:19:20.785Z,19.45
2023-01-04T13:21:51.241Z,25.00
2023-01-04T13:24:36.983Z,20.65
2023-01-04T13:27:13.801Z,26.95
2023-01-04T13:29:42.435Z,28.60
2023-01-04T13:32:59.352Z,27.23
2023-01-04T13:35:24.447Z,21.42
2023-01-04T13:37:52.712Z,24.90
2023-01-04T13:40:26.763Z,24.05
2023-01-04T13:43:09.656Z,24.73
2023-01-04T13:45:53.423Z,27.58
2023-01-04T13:48:24.362Z,30.23
2023-01-04T13:51:14.054Z,21.80
2023-01-04T13:53:42.214Z,22.38
2023-01-04T13:56:20.901Z,24.65
2023-01-04T13:58:49.316Z,28.45
2023-01-04T14:01:49.122Z,26.30
2023-01-04T14:04:27.201Z,27.33
2023-01-04T14:06:58.284Z,23.30
2023-01-04T14:09:32.834Z,26.70
2023-01-04T14:12:13.222Z,30.08
2023-01-04T14:15:22.550Z,29.98
2023-01-04T14:17:54.908Z,25.10
2023-01-04T14:20:25.373Z,27.63
2023-01-04T14:22:56.289Z,30.67
2023-01-04T14:25:46.035Z,29.48
2023-01-04T14:28:22.812Z,34.70
2023-01-04T14:30:53.560Z,29.23
2023-01-04T14:33:31.925Z,24.85
2023-01-04T14:36:21.459Z,23.90
2023-01-04T14:38:49.049Z,30.55
2023-01-04T14:41:53.113Z,32.03
2023-01-04T14:44:30.893Z,26.10
2023-01-04T14:47:01.142Z,25.30
2023-01-04T14:49:29.372Z,22.63
2023-01-04T14:52:01.819Z,30.05
2023-01-04T14:54:30.563Z,23.75
2023-01-04T14:56:59.035Z,29.13
2023-01-04T14:59:27.255Z,23.92
2023-01-04T15:01:56.366Z,27.98
2023-01-04T15:04:24.541Z,26.17
2023-01-04T15:06:58.567Z,33.03
2023-01-04T15:09:27.348Z,20.48
2023-01-04T15:11:55.352Z,26.17
2023-01-04T15:14:23.430Z,24.17
2023-01-04T15:16:51.194Z,23.80
2023-01-04T15:19:18.868Z,22.83
2023-01-04T15:21:46.604Z,21.45
2023-01-04T15:24:14.350Z,19.48
2023-01-04T15:26:43.474Z,24.60
2023-01-04T15:29:11.423Z,21.20
2023-01-04T15:31:41.572Z,25.02
2023-01-04T15:34:10.752Z,29.23
2023-01-04T15:36:40.988Z,31.75
2023-01-04T15:39:14.150Z,22.55
2023-01-04T15:42:00.915Z,21.15
2023-01-04T15:44:28.750Z,24.75
2023-01-04T15:46:56.545Z,24.52
2023-01-04T15:49:24.283Z,22.13
2023-01-04T15:51:51.961Z,26.50
2023-01-04T15:54:21.836Z,26.92
2023-01-04T15:56:49.952Z,20.38
2023-01-04T15:59:18.113Z,25.90
2023-01-04T16:01:46.785Z,25.42
2023-01-04T16:04:14.931Z,30.35
2023-01-04T16:06:42.548Z,25.58
2023-01-04T16:09:10.385Z,26.73
2023-01-04T16:11:58.246Z,25.67
2023-01-04T16:14:25.976Z,25.83
2023-01-04T16:16:54.144Z,23.40
2023-01-04T16:19:22.205Z,23.05
2023-01-04T16:21:49.867Z,25.85
2023-01-04T16:24:59.719Z,22.73
2023-01-04T16:27:05.297Z,29.52
2023-01-04T16:29:33.139Z,24.02
2023-01-04T16:32:01.546Z,25.83
2023-01-04T16:34:29.844Z,28.30
2023-01-04T16:36:57.677Z,26.45
2023-01-04T16:39:57.218Z,22.52
2023-01-04T16:42:13.709Z,26.52
2023-01-04T16:44:41.546Z,23.42
2023-01-04T16:47:09.245Z,21.45
2023-01-04T16:49:37.025Z,25.98
2023-01-04T16:52:10.426Z,24.10
2023-01-04T16:54:38.181Z,26.70
2023-01-04T16:57:05.930Z,22.17
2023-01-04T16:59:33.703Z,26.77
2023-01-04T17:02:01.475Z,29.40
2023-01-04T17:04:29.343Z,29.63
2023-01-04T17:06:58.445Z,28.00
2023-01-04T17:09:27.313Z,23.52
2023-01-04T17:15:00.708Z,22.90
2023-01-04T17:17:35.081Z,22.88
2023-01-04T17:20:04.579Z,29.05
2023-01-04T17:22:34.698Z,18.98
2023-01-04T17:25:04.007Z,20.92
2023-01-04T17:27:31.903Z,27.42
2023-01-04T17:30:07.083Z,28.25
2023-01-04T17:32:35.750Z,23.73
2023-01-04T17:35:04.581Z,27.00
2023-01-04T17:37:32.459Z,20.15
2023-01-04T17:40:00.619Z,25.15
2023-01-04T17:42:28.373Z,24.15
2023-01-04T17:44:57.299Z,28.02
2023-01-04T17:47:28.118Z,21.45
2023-01-04T17:49:55.879Z,24.05
2023-01-04T17:52:30.573Z,25.02
2023-01-04T17:54:59.509Z,26.42
2023-01-04T17:57:32.270Z,32.72
2023-01-04T17:59:59.874Z,29.45
2023-01-04T18:02:27.806Z,29.00
2023-01-04T18:04:55.809Z,29.23
2023-01-04T18:07:25.454Z,26.00
2023-01-04T18:10:04.192Z,25.70
2023-01-04T18:12:40.740Z,35.72
2023-01-04T18:15:10.392Z,26.67
2023-01-04T18:17:38.077Z,28.13
2023-01-04T18:20:06.418Z,29.95
2023-01-04T18:22:35.087Z,29.90
2023-01-04T18:25:04.534Z,28.00
2023-01-04T18:27:32.368Z,29.65
2023-01-04T18:30:00.434Z,33.85
2023-01-04T18:32:28.570Z,29.77
2023-01-04T18:34:56.225Z,30.10
2023-01-04T18:37:23.881Z,26.35
2023-01-04T18:39:51.558Z,31.27
2023-01-04T18:42:19.342Z,24.88
2023-01-04T18:44:49.722Z,30.83
2023-01-04T18:49:49.134Z,24.75
2023-01-04T18:52:18.091Z,36.83
2023-01-04T18:54:47.970Z,27.67
2023-01-04T18:57:16.376Z,32.67
2023-01-04T18:59:44.099Z,30.85
2023-01-04T19:02:18.261Z,32.58
2023-01-04T19:04:46.612Z,26.13
2023-01-04T19:07:14.882Z,24.25
2023-01-04T19:09:42.954Z,33.95
2023-01-04T19:12:11.240Z,26.77
2023-01-04T19:14:39.278Z,31.42
2023-01-04T19:17:08.338Z,27.58
2023-01-04T19:19:36.218Z,27.92
2023-01-04T19:22:04.080Z,35.17
2023-01-04T19:24:31.729Z,39.10
2023-01-04T19:27:03.201Z,31.73
2023-01-04T19:29:31.772Z,26.75
2023-01-04T19:31:59.472Z,33.53
2023-01-04T19:34:27.147Z,25.58
2023-01-04T20:04:16.267Z,41.97
2023-01-04T20:06:43.916Z,37.55
2023-01-04T20:09:11.700Z,33.53
2023-01-04T20:11:39.387Z,40.65
2023-01-04T20:14:08.577Z,37.47
2023-01-04T20:16:38.737Z,36.03
2023-01-04T20:19:06.487Z,27.38
2023-01-04T20:21:34.157Z,36.15
2023-01-04T20:24:02.712Z,32.95
2023-01-04T20:26:33.218Z,34.13
2023-01-04T20:31:34.632Z,35.28
2023-01-04T20:34:02.781Z,32.88
2023-01-04T20:36:30.622Z,33.58
2023-01-04T20:38:59.615Z,33.90
2023-01-04T20:41:29.211Z,32.17
2023-01-04T20:43:57.479Z,31.17
2023-01-04T20:46:33.436Z,28.63
2023-01-04T20:49:02.451Z,40.10
2023-01-04T20:51:30.895Z,31.08
2023-01-04T20:53:59.841Z,39.78
2023-01-04T20:56:30.579Z,30.98
2023-01-04T21:01:26.218Z,25.90
2023-01-04T21:03:54.117Z,37.28
2023-01-04T21:06:25.148Z,30.20
2023-01-04T21:08:54.948Z,30.80
2023-01-04T21:11:23.856Z,22.58
2023-01-04T21:13:52.093Z,28.75
2023-01-04T21:16:19.916Z,24.40
2023-01-04T21:18:47.756Z,26.00
2023-01-04T21:21:17.502Z,31.30
2023-01-04T21:23:46.938Z,31.57
2023-01-04T21:26:17.386Z,30.40
2023-01-04T21:28:46.388Z,30.00
2023-01-04T21:31:18.174Z,35.28
2023-01-04T21:33:46.722Z,31.15
2023-01-04T21:36:20.209Z,29.77
2023-01-04T21:38:52.420Z,30.33
2023-01-04T21:41:24.815Z,30.08
2023-01-04T21:43:54.692Z,26.33
2023-01-04T21:46:23.278Z,24.35
2023-01-04T21:48:55.877Z,24.60
2023-01-04T21:51:23.959Z,23.90
2023-01-04T21:53:51.658Z,31.30
2023-01-04T21:56:21.338Z,28.42
2023-01-04T21:58:49.771Z,40.78
2023-01-04T22:01:21.268Z,26.38
2023-01-04T22:03:49.549Z,28.58
2023-01-04T22:06:17.284Z,34.25
2023-01-04T22:08:46.629Z,31.83
2023-01-04T22:11:15.859Z,25.90
2023-01-04T22:13:44.305Z,25.65
2023-01-04T22:16:16.838Z,26.50
2023-01-04T22:18:49.242Z,28.88
2023-01-04T22:21:19.257Z,31.60
2023-01-04T22:23:47.100Z,29.42
2023-01-04T22:26:14.860Z,26.95
2023-01-04T22:28:42.653Z,24.33
2023-01-04T22:31:12.822Z,29.38
2023-01-04T22:33:41.421Z,27.00
2023-01-04T22:36:19.114Z,29.00
2023-01-04T22:38:50.573Z,24.63
2023-01-04T22:41:21.486Z,27.35
2023-01-04T22:43:57.865Z,34.97
2023-01-04T22:46:27.051Z,36.38
2023-01-04T22:48:55.051Z,23.17
2023-01-04T22:51:24.246Z,27.30
2023-01-04T22:53:57.699Z,19.73
2023-01-04T22:56:26.095Z,26.83
2023-01-04T22:58:55.891Z,25.05
2023-01-04T23:01:30.512Z,38.03
2023-01-04T23:04:00.413Z,22.70
2023-01-04T23:06:29.794Z,26.47
2023-01-04T23:09:02.955Z,30.48
2023-01-04T23:11:32.266Z,28.27
2023-01-04T23:14:02.736Z,27.15
2023-01-04T23:16:33.076Z,33.60
2023-01-04T23:19:05.784Z,34.97
2023-01-04T23:21:34.880Z,22.00
2023-01-04T23:24:03.553Z,32.47
2023-01-04T23:26:33.029Z,34.00
2023-01-04T23:29:01.417Z,29.42
2023-01-04T23:31:32.187Z,23.20
2023-01-04T23:34:02.621Z,21.23
2023-01-04T23:36:37.715Z,25.10
2023-01-04T23:39:08.702Z,26.50
2023-01-04T23:41:46.110Z,30.45
2023-01-04T23:46:57.457Z,29.23
2023-01-04T23:49:27.037Z,30.67
2023-01-04T23:51:55.121Z,28.60
2023-01-04T23:54:23.078Z,30.58
2023-01-04T23:56:50.973Z,39.40
2023-01-04T23:59:19.031Z,27.88
